Huvudsida
METAR-TAF:

METAR-TAF

Flygplatser :

Ho Chi Minh-staden, Vietnam

Tan Son Nhat internationella flygplats

latitud: 10-49N, longitud: 106-40E, höjd: 19 m

Aktuellt väderrapport

Denna rapport gjordes för 38 minuter sedan, klockan 00:30 UTC
Vind 2 kt från nord
Temperatur 25°C
Fuktighet 94%
Tryck 1009 hPa
Sikt: 3000 m
Spridda moln på en höjd av 1500 ft
Brutna moln på en höjd av 4000 ft
fuktdis

METAR: VVTS 200030Z 01002KT 3000 R25L/1700VP2000N BR SCT015 BKN040 25/24 Q1009 BECMG TL0100 5000 BR

Tid: 08:08 (01:08 UTC)

Väderprognos

Denna rapport gjordes för 2 timmar och 8 minuter sedan, klockan 23:00 UTC
Prognos gäller från 20 kl. 00 UTC till 21 kl. 06 UTC
Vind 6 kt från väst/nordväst
Sikt: 5000 m
Spridda moln på en höjd av 1500 ft
Spridda moln på en höjd av 4000 ft
fuktdis
Blir
från 20 kl. 01 UTC till 20 kl. 02 UTC
Sikt 10 km eller mer

TAF: VVTS 192300Z 2000/2106 30006KT 5000 BR SCT015 SCT040 BECMG 2001/2002 9999 NSW

Aktuella väderrapporter och prognoser från 4000 flygplatser (METAR- och TAF-rapporter).

De tillgängliga stationerna syns som gula och röda prickar på kartan.

För musen över prickarna för att se namnen på stationerna.

Klicka sedan för att få väderrapporter och prognoser.

För att ändra kartan: Klicka på de gröna knapparna med ett svart kors på för att zooma in; den gröna knappen med ett streck på för att zooma ut; eller på de gröna pilarna för angränsande kartor.


METAR-TAF: